Kedougou, Senegal

3:49 PM GMT on September 01, 2015 (GMT +0000)
Kedougou | | Change Station
CLOSE
Current Station
Airport
Location: Kedougou,
Elevation: 548 ft
Nearby Weather Stations

Elev 548 ft 12.57 °N, 12.22 °W | Updated 1 hour ago

Scattered Clouds
Scattered Clouds
81 °F
Feels Like 86 °F
N
7
Wind Variable Wind from West

Today
High -- | Low -- °F
--% Chance of Precip.
Yesterday
High -- | Low -- °F
Precip. -- in
6:38 AM 6:59 PM
Waning Gibbous, 88% visible
Pressure 29.95 in
Visibility 6.2 miles
Clouds Mostly Cloudy 1300 ft
Scattered Clouds 23000 ft
Heat Index 86 °F
Dew Point 75 °F
Humidity 84%
Rainfall 0.00 in
Snow Depth Not available.
UV 14 out of 12
Pollen Not available.
Air Quality Not available.
Flu Activity Not available.
METAR GOTK 011400Z 28006KT 9999 BKN013 SCT230 27/24 Q1014
Pressure 29.95 in
Visibility 6.2 miles
Clouds Mostly Cloudy 1300 ft
Scattered Clouds 23000 ft
Heat Index 86 °F
Dew Point 75 °F
Humidity 84%
Rainfall 0.00 in
Snow Depth Not available.
UV 14 out of 12
Pollen Not available.
Air Quality Not available.
Flu Activity Not available.
METAR GOTK 011400Z 28006KT 9999 BKN013 SCT230 27/24 Q1014

10-Day Weather Forecast

×

Almanac

Astronomy

Sep. 01, 2015 Rise Set
Actual Time
Civil Twilight
Nautical Twilight
Astronomical Twilight
Moon
Length of Visible Light
Length of Day
Tomorrow will be .
, % of the Moon is Illuminated

Today's Extremes

Country Highs Country Lows

Community

WunderPhotos

Upload Photos

1,851,538 photos uploaded!

WunderBlogs® & News

Nearby

Air Quality

  Air Quality AQ Index Pollutant
Not available.

Snow Depth

Station Depth Elevation

Earthquake Activity

City Distance Mag. Time & Date
Minimum magnitude displayed is 2.5.

Coastal Water Temperatures

Place Temperature

Stations

Nearby Weather Stations

Station Location Temp. Windchill Dew Point Humidity Wind Precip. Elev Updated Type